FWKI/LLW METAR and TAF weather

Enter ICAO airport designator
Station Type Date Time Source
FWKI METAR 2018/04/21 06:00 UTC NOAA

FWKI 210600Z 12005KT 9999 FEW020 20/18 Q1021 NOSIG


Station Type Date Time Source
FWKI Decoded METAR 2018/04/21 06:00 UTC NOAA

Lilongwe International Airport, Malawi (FWKI) 13-47S 033-46E 1229M
Apr 21, 2018 - 02:00 AM EDT / 2018.04.21 0600 UTC
Wind: from the ESE (120 degrees) at 6 MPH (5 KT):0
Visibility: greater than 7 mile(s):0
Sky conditions: mostly clear
Temperature: 68 F (20 C)
Dew Point: 64 F (18 C)
Relative Humidity: 88%
Pressure (altimeter): 30.15 in. Hg (1021 hPa)
ob: FWKI 210600Z 12005KT 9999 FEW020 20/18 Q1021 NOSIG
cycle: 6

Station Type Date Time Source
FWKI TAF 2018/04/21 06:33 UTC NOAA

TAF TAF FWKI 210400Z 2106/2212 10004KT CAVOK
BECMG 2110/2112 16008KT 9999 SCT030
FM211600 VRB03KT CAVOK


Example: see airport list